Amenia, ND

8:00 AM CDT on July 24, 2014 (GMT -0500)
Home of the Absaraka Crows (KNDABSAR2) Elev 1066 ft | 46.98 °N, 97.39 °W | Change Station

Current weather conditions updated 60 seconds ago

Partly Cloudy
Partly Cloudy
68.4 °F
Feels Like 68.4 °F
N
3.1
Wind Variable Wind from South
Gusts 3.8 mph

Today is forecast to be nearly the same temperature as yesterday.

Today
High -- | Low -- °F
--% Chance of Precip.
Yesterday
High -- | Low -- °F
Precip. -- in
5:58 AM 9:11 PM
Waning Crescent, 5% visible
Pressure 30.08 in
Visibility 10.0 miles
Clouds Clear
Dew Point 40 °F
Humidity 35%
Rainfall 0.00 in
Snow Depth Not available.
UV 1 out of 12
Pollen 7.40 out of 12
Air Quality Not available.
Flu Activity Not available.
METAR KFAR 241253Z 15009KT 10SM CLR 20/14 A3009 RMK AO2 SLP185 T02000139

More Conditions Fewer Conditions

Pressure 30.08 in
Visibility 10.0 miles
Clouds Clear
Dew Point 40 °F
Humidity 35%
Rainfall 0.00 in
Snow Depth Not available.
UV 1 out of 12
Pollen 7.40 out of 12
Air Quality Not available.
Flu Activity Not available.
METAR KFAR 241253Z 15009KT 10SM CLR 20/14 A3009 RMK AO2 SLP185 T02000139

More Conditions Fewer Conditions

10-Day Weather Forecast

Almanac

Astronomy

Jul. 24, 2014 Rise Set
Actual Time 5:58 AM CDT 9:11 PM CDT
Civil Twilight 5:22 AM CDT 9:48 PM CDT
Nautical Twilight 4:34 AM CDT 10:35 PM CDT
Astronomical Twilight 3:34 AM CDT 11:35 PM CDT
Moon 4:09 AM CDT 7:25 PM CDT
Length of Visible Light 16h 26m
Length of Day
15h 12m
Tomorrow will be 2m 17s shorter.
Waning Crescent, 5% of the Moon is Illuminated
Today
Waning Crescent
Jul 26
New
Aug 3
First Quarter
Aug 10
Full
Aug 17
Last Quarter

Today's Extremes

State Highs State Lows

Community

WunderPhotos

Upload Photos

1,736,993 photos uploaded!

Nearby

Snow Depth

Station Depth Elevation
No new snow has been reported.

Earthquake Activity

City Distance Mag. Time & Date
No recent earthquake activity has been reported nearby.
Minimum magnitude displayed is 2.5.

Coastal Water Temperatures

Place Temperature
No Stations Reporting

Nearby Weather Stations

Station Location Temp. Dew Point Humidity Wind Precip. Elev Updated Type
Home of the Absaraka Crows, Absaraka, ND 68.4 °F 40 °F 35% South  at  3.1 mph 0.00 in / hr 1066 ft 7:59 AM CDT Rapid Fire
Harwood, ND, Harwood, ND 65.2 °F 59 °F 80% SSE  at  0.0 mph 0.00 in / hr 879 ft 7:48 AM CDT Normal
Westport Beach, West Fargo, ND 66.2 °F 60 °F 81% SE  at  7.3 mph - / hr 896 ft 7:50 AM CDT Normal
Fargo, ND 66.2 °F 57 °F 71% South  at  2.0 mph 0.00 in / hr 901 ft 8:00 AM CDT Rapid Fire
South Fargo, Fargo, ND 65.7 °F 60 °F 82% ENE  at  0.0 mph 0.00 in / hr 902 ft 8:00 AM CDT Normal
Groovetones Central, Fargo, ND 66.0 °F 57 °F 72% South  at  3.0 mph 0.00 in / hr 901 ft 8:00 AM CDT Rapid Fire
Country Club, Moorhead, MN 67.5 °F 57 °F 70% SSW  at  6.5 mph 0.00 in / hr 901 ft 8:00 AM CDT Rapid Fire

Show More Stations Show Fewer Stations